Time;durP1;ratioP1;P1;durP2;ratioP2;P2;SDS_P1;SDS_P2;PMS_P1;PMS_P2;Temp;Humidity;BMP_temperature;BMP_pressure;BME280_temperature;BME280_humidity;BME280_pressure;Samples;Min_cycle;Max_cycle;Signal;HPM_P1;HPM_P2
2021/01/30 00:01:09;;;;;;;37.50;22.65;;;;;;;1.86;77.54;98986.00;5052880;28;20029;-74
2021/01/30 00:03:40;;;;;;;36.83;22.38;;;;;;;1.74;78.45;98981.91;5052602;28;20402;-74
2021/01/30 00:06:05;;;;;;;27.88;16.70;;;;;;;1.77;78.30;98988.56;5035071;28;20025;-74
2021/01/30 00:08:31;;;;;;;39.10;23.10;;;;;;;1.74;78.70;98981.91;5052772;28;20024;-74
2021/01/30 00:10:58;;;;;;;36.30;22.00;;;;;;;1.72;78.95;98967.75;5053185;28;20457;-75
2021/01/30 00:13:25;;;;;;;37.95;22.38;;;;;;;1.73;78.82;98971.91;5052478;28;20025;-74
2021/01/30 00:15:51;;;;;;;34.65;20.98;;;;;;;1.85;79.03;98961.78;5034742;28;20028;-74
2021/01/30 00:18:57;;;;;;;34.42;20.63;;;;;;;1.90;77.96;98967.59;5034333;28;20021;-74
2021/01/30 00:22:00;;;;;;;31.45;19.05;;;;;;;2.00;77.76;98963.31;5052329;28;20033;-74
2021/01/30 00:24:29;;;;;;;30.65;18.48;;;;;;;2.00;77.72;98946.56;5052043;28;20115;-74
2021/01/30 00:27:04;;;;;;;29.45;18.77;;;;;;;2.03;77.49;98933.19;5034396;28;20080;-75
2021/01/30 00:32:52;;;;;;;32.58;17.67;;;;;;;2.06;78.11;98935.69;5052364;28;20102;-74
2021/01/30 00:35:22;;;;;;;28.60;17.40;;;;;;;1.83;78.31;98920.03;5034396;28;20031;-74
2021/01/30 00:37:56;;;;;;;28.67;18.27;;;;;;;1.90;78.43;98932.53;5051991;28;20049;-74
2021/01/30 00:40:22;;;;;;;31.75;18.38;;;;;;;1.92;79.11;98928.31;5051478;28;20041;-75
2021/01/30 00:42:57;;;;;;;32.55;19.13;;;;;;;1.87;79.29;98926.69;5034366;28;20047;-74
2021/01/30 00:45:37;;;;;;;34.28;18.67;;;;;;;1.86;78.98;98915.03;5051808;28;20029;-73
2021/01/30 00:48:09;;;;;;;30.20;18.73;;;;;;;2.09;78.76;98910.56;5034096;28;20417;-74
2021/01/30 00:50:38;;;;;;;30.63;18.98;;;;;;;1.96;79.08;98914.88;5051895;28;20418;-74
2021/01/30 00:53:04;;;;;;;30.48;17.92;;;;;;;2.22;77.39;98904.59;5034004;28;20437;-74
2021/01/30 00:55:39;;;;;;;32.22;19.17;;;;;;;2.23;77.52;98898.72;5051640;28;20028;-74
2021/01/30 00:58:06;;;;;;;28.30;17.77;;;;;;;2.24;77.98;98897.88;5052475;28;20017;-74
2021/01/30 01:00:56;;;;;;;30.80;17.75;;;;;;;2.33;78.45;98891.06;5033974;28;20032;-74
2021/01/30 01:03:29;;;;;;;33.13;19.10;;;;;;;2.06;79.97;98870.53;5051409;28;20159;-75
2021/01/30 01:06:13;;;;;;;33.70;18.60;;;;;;;2.16;79.41;98885.41;5051631;28;20013;-75
2021/01/30 01:08:39;;;;;;;32.05;18.40;;;;;;;2.21;79.45;98875.34;5051718;28;20025;-74
2021/01/30 01:11:17;;;;;;;30.83;17.90;;;;;;;2.26;78.28;98866.91;5051478;28;20048;-74
2021/01/30 01:13:44;;;;;;;34.05;18.40;;;;;;;2.22;78.47;98860.28;5033749;28;20496;-75
2021/01/30 01:16:10;;;;;;;30.42;18.63;;;;;;;2.12;78.91;98858.72;5051573;28;20025;-73
2021/01/30 01:18:36;;;;;;;30.15;18.02;;;;;;;2.28;78.44;98860.19;5051307;28;20091;-74
2021/01/30 01:21:08;;;;;;;30.20;19.33;;;;;;;2.19;78.59;98854.50;5051536;28;20056;-74
2021/01/30 01:23:36;;;;;;;28.98;18.08;;;;;;;2.19;78.64;98846.97;5051623;28;20514;-74
2021/01/30 01:26:03;;;;;;;33.47;19.85;;;;;;;2.14;78.96;98841.19;5051460;28;20021;-74
2021/01/30 01:28:46;;;;;;;32.75;19.50;;;;;;;2.10;78.32;98819.53;5051792;28;20021;-74
2021/01/30 01:31:25;;;;;;;33.55;18.85;;;;;;;2.26;78.07;98834.31;5051704;28;20040;-75
2021/01/30 01:33:56;;;;;;;34.28;19.25;;;;;;;2.20;78.43;98821.88;5052664;28;20029;-74
2021/01/30 01:36:36;;;;;;;32.77;19.23;;;;;;;2.22;78.69;98820.19;5051379;28;20085;-75
2021/01/30 01:39:03;;;;;;;34.55;19.98;;;;;;;2.10;78.95;98805.31;5051107;28;20029;-74
2021/01/30 01:41:51;;;;;;;34.50;20.58;;;;;;;1.98;79.44;98789.63;5051388;28;20604;-74
2021/01/30 01:44:20;;;;;;;34.67;21.15;;;;;;;1.83;79.89;98778.09;5051330;28;20075;-75
2021/01/30 01:46:48;;;;;;;40.50;22.02;;;;;;;1.88;80.90;98793.94;5051421;28;20025;-74
2021/01/30 01:49:21;;;;;;;37.75;22.10;;;;;;;1.80;80.87;98769.81;5051544;28;20082;-74
2021/01/30 01:52:28;;;;;;;34.88;21.58;;;;;;;1.86;81.46;98762.22;5036220;28;20021;-74
2021/01/30 01:54:59;;;;;;;35.42;20.65;;;;;;;1.78;80.68;98760.63;5055516;28;20040;-74
2021/01/30 01:57:28;;;;;;;28.73;16.40;;;;;;;1.83;80.83;98763.09;5037250;28;20032;-74
2021/01/30 02:00:09;;;;;;;37.92;21.25;;;;;;;1.62;81.59;98740.81;5054632;28;20033;-74
2021/01/30 02:02:36;;;;;;;36.03;21.98;;;;;;;1.67;81.53;98747.44;5036692;28;20118;-75
2021/01/30 02:08:30;;;;;;;40.78;23.48;;;;;;;1.82;81.31;98740.56;5055028;28;20037;-76
2021/01/30 02:10:57;;;;;;;36.15;22.52;;;;;;;1.83;80.58;98745.56;5037324;28;20068;-74
2021/01/30 02:13:48;;;;;;;37.50;22.80;;;;;;;1.93;81.01;98751.25;5054877;28;20055;-75
2021/01/30 02:16:40;;;;;;;24.93;15.33;;;;;;;2.00;80.74;98751.16;5037092;28;20033;-75
2021/01/30 02:19:44;;;;;;;39.15;21.25;;;;;;;1.94;82.44;98747.91;5054650;28;20040;-74
2021/01/30 02:22:20;;;;;;;35.67;21.77;;;;;;;1.88;83.10;98741.31;5037123;28;20029;-75
2021/01/30 02:25:31;;;;;;;35.33;21.50;;;;;;;2.01;82.14;98731.94;5036831;28;20082;-74
2021/01/30 02:28:33;;;;;;;34.90;21.70;;;;;;;1.93;82.63;98727.03;5054974;28;20028;-74
2021/01/30 02:34:48;;;;;;;38.45;21.77;;;;;;;1.99;82.82;98718.59;5055004;28;20533;-75
2021/01/30 02:37:23;;;;;;;39.72;22.23;;;;;;;2.13;82.64;98692.50;5036764;28;20021;-74
2021/01/30 02:39:59;;;;;;;38.85;21.63;;;;;;;2.06;83.01;98693.44;5036292;28;20053;-75
2021/01/30 02:42:43;;;;;;;35.22;21.50;;;;;;;2.10;82.64;98710.06;5036371;28;20108;-75
2021/01/30 02:45:48;;;;;;;35.45;21.52;;;;;;;2.21;82.39;98710.75;5054080;28;20516;-74
2021/01/30 02:48:55;;;;;;;34.42;20.95;;;;;;;2.18;82.77;98697.47;5031559;28;20511;-75
2021/01/30 02:51:39;;;;;;;37.25;21.90;;;;;;;2.09;82.97;98688.41;5054887;28;20079;-75
2021/01/30 02:54:21;;;;;;;38.13;22.92;;;;;;;2.08;83.94;98691.72;5057850;28;20484;-75
2021/01/30 02:56:52;;;;;;;38.25;22.38;;;;;;;1.84;83.39;98633.66;5055707;28;20601;-75
2021/01/30 02:59:21;;;;;;;;;;;;;;;2.01;83.39;98677.66;5055336;28;20037;-74
2021/01/30 03:02:01;;;;;;;39.30;22.60;;;;;;;2.00;83.65;98670.16;5054644;28;19963;-74
2021/01/30 03:04:36;;;;;;;42.08;23.70;;;;;;;2.14;83.65;98673.31;5037489;28;20049;-75
2021/01/30 03:07:42;;;;;;;41.55;24.45;;;;;;;2.04;84.33;98670.06;5036266;28;20025;-75
2021/01/30 03:10:30;;;;;;;40.38;23.20;;;;;;;2.05;84.23;98660.91;5054197;28;20033;-75
2021/01/30 03:13:20;;;;;;;39.45;23.95;;;;;;;1.95;84.89;98646.84;5054016;28;20063;-74
2021/01/30 03:16:07;;;;;;;38.00;22.42;;;;;;;1.97;85.61;98635.97;5035752;28;20048;-74
2021/01/30 03:18:39;;;;;;;41.90;23.23;;;;;;;2.17;84.40;98633.13;5036175;28;20430;-74
2021/01/30 03:21:11;;;;;;;43.35;23.77;;;;;;;2.10;85.18;98619.06;5035717;28;20039;-75
2021/01/30 03:23:39;;;;;;;39.88;23.15;;;;;;;2.01;84.89;98615.03;5053723;28;20087;-74
2021/01/30 03:26:16;;;;;;;39.67;22.30;;;;;;;2.06;85.54;98622.47;5053401;28;20379;-75
2021/01/30 03:28:50;;;;;;;43.67;24.13;;;;;;;2.07;85.82;98621.59;5053342;28;20434;-75
2021/01/30 03:31:23;;;;;;;40.08;23.45;;;;;;;1.99;86.71;98624.25;5053480;28;20494;-75
2021/01/30 03:34:14;;;;;;;40.97;23.30;;;;;;;2.01;86.65;98619.19;5035698;28;20452;-75
2021/01/30 03:36:52;;;;;;;28.60;17.20;;;;;;;2.05;87.59;98606.59;5053261;28;20579;-75
2021/01/30 03:39:18;;;;;;;46.28;25.05;;;;;;;2.05;86.50;98599.09;5053075;28;20041;-75
2021/01/30 03:42:04;;;;;;;41.28;24.48;;;;;;;2.05;86.88;98601.59;5053417;28;20028;-75
2021/01/30 03:44:49;;;;;;;46.45;25.90;;;;;;;2.03;87.54;98594.94;5035229;28;20047;-75
2021/01/30 03:47:15;;;;;;;40.17;24.23;;;;;;;1.88;88.05;98585.19;5035312;28;20040;-75
2021/01/30 03:50:08;;;;;;;42.95;24.65;;;;;;;2.11;87.72;98586.47;5052937;28;20033;-75
2021/01/30 03:52:39;;;;;;;40.53;24.10;;;;;;;1.96;88.06;98585.88;5052690;28;20028;-75
2021/01/30 03:55:30;;;;;;;30.05;18.05;;;;;;;2.00;88.00;98575.78;5052969;28;20060;-75
2021/01/30 03:58:00;;;;;;;40.60;23.67;;;;;;;2.12;87.68;98582.28;5035985;28;20037;-76
2021/01/30 04:00:51;;;;;;;40.42;25.58;;;;;;;1.95;88.52;98574.19;5035268;28;20132;-76
2021/01/30 04:03:52;;;;;;;32.13;18.95;;;;;;;2.01;88.39;98569.09;5035766;28;20087;-77
2021/01/30 04:06:33;;;;;;;41.22;23.63;;;;;;;2.03;88.52;98573.22;5053153;28;20036;-77
2021/01/30 04:09:15;;;;;;;38.70;23.27;;;;;;;1.88;88.92;98550.13;5052985;28;20028;-76
2021/01/30 04:11:44;;;;;;;41.93;23.13;;;;;;;1.92;90.03;98554.22;5052907;28;20048;-76
2021/01/30 04:14:14;;;;;;;45.00;24.17;;;;;;;1.95;89.77;98552.50;5053331;28;20060;-74
2021/01/30 04:16:54;;;;;;;42.58;24.52;;;;;;;1.99;88.88;98546.56;5052412;28;20056;-75
2021/01/30 04:19:32;;;;;;;42.65;25.65;;;;;;;1.92;90.28;98539.19;5034949;28;20028;-75
2021/01/30 04:22:05;;;;;;;42.47;25.95;;;;;;;1.73;90.51;98514.44;5052362;28;20083;-75
2021/01/30 04:24:56;;;;;;;42.45;24.20;;;;;;;1.92;90.35;98536.69;5052211;28;20033;-74
2021/01/30 04:27:34;;;;;;;47.33;26.58;;;;;;;1.77;90.50;98528.59;5034782;28;20091;-75
2021/01/30 04:30:05;;;;;;;47.65;27.70;;;;;;;1.92;90.76;98536.69;5034346;28;20032;-76
2021/01/30 04:32:30;;;;;;;42.00;25.40;;;;;;;1.86;90.76;98539.31;5052307;28;20041;-75
2021/01/30 04:34:57;;;;;;;41.75;25.90;;;;;;;1.84;91.24;98541.00;5034573;28;20395;-76
2021/01/30 04:37:23;;;;;;;41.17;25.30;;;;;;;1.94;90.94;98532.47;5034003;28;20410;-76
2021/01/30 04:39:49;;;;;;;43.20;25.02;;;;;;;1.87;91.70;98530.91;5052086;28;20041;-75
2021/01/30 04:42:30;;;;;;;40.72;24.35;;;;;;;1.77;91.03;98511.06;5052169;28;20017;-74
2021/01/30 04:45:34;;;;;;;45.58;25.00;;;;;;;1.91;90.75;98517.50;5051559;28;20083;-76
2021/01/30 04:48:14;;;;;;;39.92;23.95;;;;;;;1.94;90.95;98512.44;4997169;28;20130;-75
2021/01/30 04:50:59;;;;;;;42.13;25.95;;;;;;;1.98;90.92;98506.53;5034619;28;20060;-75
2021/01/30 04:53:43;;;;;;;50.15;27.58;;;;;;;1.68;90.89;98437.75;5051945;28;20029;-75
2021/01/30 04:56:37;;;;;;;49.72;28.58;;;;;;;2.13;90.81;98484.53;5051763;28;20037;-75
2021/01/30 04:59:44;;;;;;;51.88;28.77;;;;;;;2.32;89.45;98503.34;5033886;28;20033;-76
2021/01/30 05:02:45;;;;;;;47.17;29.23;;;;;;;2.11;90.56;98486.22;5034067;28;20064;-76
2021/01/30 05:05:15;;;;;;;50.85;29.52;;;;;;;2.42;89.82;98496.47;5033133;28;20056;-75
2021/01/30 05:07:50;;;;;;;45.45;27.48;;;;;;;2.32;90.20;98488.31;5033852;28;20033;-76
2021/01/30 05:13:57;;;;;;;58.20;31.83;;;;;;;1.98;90.74;98439.69;5052179;28;20068;-75
2021/01/30 05:17:18;;;;;;;45.03;26.17;;;;;;;2.18;91.46;98471.91;5033942;28;20029;-73
2021/01/30 05:20:06;;;;;;;51.13;29.08;;;;;;;2.36;91.25;98461.50;4951786;29;20039;-73
2021/01/30 05:22:40;;;;;;;47.83;28.75;;;;;;;2.34;90.83;98463.22;5027827;28;20119;-74
2021/01/30 05:25:09;;;;;;;47.63;28.30;;;;;;;2.31;91.68;98435.72;5054357;28;20028;-75
2021/01/30 05:31:23;;;;;;;42.17;25.38;;;;;;;2.55;90.79;98458.63;5058696;28;20049;-75
2021/01/30 05:34:27;;;;;;;43.03;25.45;;;;;;;2.55;90.64;98452.78;5054666;28;20052;-75
2021/01/30 05:37:04;;;;;;;42.80;25.17;;;;;;;2.52;91.12;98422.72;5058289;28;20529;-75
2021/01/30 05:39:46;;;;;;;43.33;25.75;;;;;;;2.51;91.22;98431.13;5039842;28;20242;-75
2021/01/30 05:42:48;;;;;;;42.38;25.27;;;;;;;2.51;91.85;98441.16;5057775;28;20020;-74
2021/01/30 05:45:42;;;;;;;37.97;24.73;;;;;;;2.57;91.67;98436.00;5040127;28;20048;-76
2021/01/30 05:48:25;;;;;;;42.78;25.58;;;;;;;2.60;91.82;98419.22;5057863;28;20033;-74
2021/01/30 05:51:41;;;;;;;50.53;27.73;;;;;;;2.51;92.28;98431.13;5058003;28;20111;-75
2021/01/30 05:54:08;;;;;;;44.88;27.00;;;;;;;2.61;92.51;98437.59;5057746;28;20033;-75
2021/01/30 05:56:51;;;;;;;44.72;27.05;;;;;;;2.65;92.18;98439.19;5057860;28;20506;-75
2021/01/30 05:59:38;;;;;;;48.25;29.05;;;;;;;2.52;92.67;98431.09;5057994;28;20104;-75
2021/01/30 06:02:18;;;;;;;59.70;34.70;;;;;;;2.53;92.96;98432.75;5057900;28;20414;-75
2021/01/30 06:04:53;;;;;;;57.08;34.33;;;;;;;2.61;92.80;98422.56;5057642;28;20065;-74
2021/01/30 06:07:39;;;;;;;54.40;31.83;;;;;;;2.64;93.10;98428.31;5058120;28;20033;-74
2021/01/30 06:10:31;;;;;;;53.08;29.77;;;;;;;2.71;93.10;98441.56;5058017;28;20031;-75
2021/01/30 06:13:51;;;;;;;50.53;28.90;;;;;;;2.73;92.76;98442.34;5057942;28;20037;-75
2021/01/30 06:16:49;;;;;;;49.22;28.55;;;;;;;2.91;92.34;98436.91;5057975;28;20029;-75
2021/01/30 06:19:16;;;;;;;50.78;30.17;;;;;;;2.69;93.11;98439.94;5057664;28;20089;-75
2021/01/30 06:22:22;;;;;;;51.15;30.55;;;;;;;2.94;92.08;98434.34;5057616;28;20040;-75
2021/01/30 06:24:49;;;;;;;53.88;30.17;;;;;;;2.55;92.34;98397.59;5036128;28;20041;-75
2021/01/30 06:27:44;;;;;;;48.70;29.55;;;;;;;2.83;92.91;98428.75;5057682;28;20040;-74
2021/01/30 06:30:24;;;;;;;55.15;32.13;;;;;;;2.70;93.25;98424.03;5057560;28;20064;-74
2021/01/30 06:33:22;;;;;;;55.03;31.77;;;;;;;2.90;92.85;98436.94;5039696;28;20037;-74
2021/01/30 06:35:54;;;;;;;61.83;33.72;;;;;;;2.83;92.88;98422.91;5032308;28;20033;-74
2021/01/30 06:38:56;;;;;;;70.55;38.72;;;;;;;2.86;93.26;98427.84;5053923;28;20055;-74
2021/01/30 06:41:37;;;;;;;72.30;38.40;;;;;;;2.84;93.01;98427.06;5036567;28;20120;-74
2021/01/30 06:44:29;;;;;;;75.00;41.00;;;;;;;3.03;93.15;98425.78;5054392;28;20116;-74
2021/01/30 06:47:33;;;;;;;75.53;44.60;;;;;;;2.96;92.55;98436.81;5056648;28;20028;-74
2021/01/30 06:50:39;;;;;;;79.68;47.17;;;;;;;2.84;92.61;98439.59;5057076;28;20029;-74
2021/01/30 06:53:26;;;;;;;77.65;44.67;;;;;;;2.91;91.90;98431.09;5058952;28;20433;-74
2021/01/30 06:56:13;;;;;;;85.47;46.72;;;;;;;2.74;93.01;98438.97;5055813;28;20029;-75
2021/01/30 06:59:10;;;;;;;85.97;48.92;;;;;;;2.73;93.47;98444.03;5054504;28;20037;-74
2021/01/30 07:02:21;;;;;;;76.30;44.47;;;;;;;2.93;92.27;98436.91;5058199;28;20037;-81
2021/01/30 07:05:41;;;;;;;68.55;34.80;;;;;;;3.09;92.09;98436.50;5054397;28;20033;-78
2021/01/30 07:08:27;;;;;;;99.72;48.40;;;;;;;2.87;93.42;98435.34;5055436;28;20029;-77
2021/01/30 07:11:19;;;;;;;99.70;48.55;;;;;;;3.04;93.02;98433.28;5032197;28;20029;-75
2021/01/30 07:14:24;;;;;;;94.13;47.70;;;;;;;3.07;93.07;98430.69;5030951;28;20029;-77
2021/01/30 07:17:05;;;;;;;98.05;45.83;;;;;;;3.21;93.04;98433.69;5048943;28;20539;-79
2021/01/30 07:19:46;;;;;;;80.15;41.35;;;;;;;3.31;92.26;98426.78;4682384;28;10000146;-79
2021/01/30 07:22:18;;;;;;;43.67;26.45;;;;;;;3.47;91.51;98433.06;5030836;28;20128;-77
2021/01/30 07:24:56;;;;;;;64.55;35.50;;;;;;;3.57;92.31;98448.72;5030554;28;20033;-77
2021/01/30 07:27:33;;;;;;;53.78;32.35;;;;;;;3.57;91.85;98452.06;5031042;28;20036;-78
2021/01/30 07:30:25;;;;;;;51.28;32.15;;;;;;;3.60;92.25;98441.13;5027864;28;20494;-77
2021/01/30 07:33:02;;;;;;;47.45;29.70;;;;;;;3.70;92.40;98445.91;5047923;28;20025;-78
2021/01/30 07:35:34;;;;;;;56.72;34.58;;;;;;;3.65;92.05;98457.72;5037029;28;20034;-79
2021/01/30 07:38:28;;;;;;;75.57;43.10;;;;;;;3.36;93.37;98443.41;5010728;28;20091;-77
2021/01/30 07:41:07;;;;;;;118.03;69.07;;;;;;;3.48;93.13;98467.38;5011196;28;20426;-79
2021/01/30 07:43:50;;;;;;;134.48;82.38;;;;;;;3.51;93.38;98453.06;5029335;28;20072;-78
2021/01/30 07:46:30;;;;;;;138.63;81.97;;;;;;;3.66;93.92;98478.66;5010905;28;20033;-82
2021/01/30 07:49:11;;;;;;;118.75;69.65;;;;;;;3.46;93.75;98442.31;5009552;28;20121;-79
2021/01/30 07:51:46;;;;;;;115.00;67.22;;;;;;;3.67;93.67;98477.78;5010890;28;20117;-76
2021/01/30 07:54:13;;;;;;;94.68;53.58;;;;;;;3.73;93.52;98486.00;5009971;28;20032;-79
2021/01/30 07:56:48;;;;;;;99.25;57.78;;;;;;;3.83;93.41;98497.47;5010685;28;20107;-78
2021/01/30 07:59:30;;;;;;;75.53;45.40;;;;;;;3.48;95.25;98465.69;5025470;28;20045;-82
2021/01/30 08:01:59;;;;;;;70.47;42.10;;;;;;;3.85;94.92;98503.28;5029859;28;20044;-77
2021/01/30 08:04:42;;;;;;;67.10;39.13;;;;;;;3.80;94.68;98509.28;5029611;28;20043;-78
2021/01/30 08:07:19;;;;;;;70.28;41.10;;;;;;;3.89;95.22;98509.06;5029735;28;20025;-77
2021/01/30 08:10:13;;;;;;;103.93;58.60;;;;;;;3.90;94.18;98508.22;5047710;28;20033;-77
2021/01/30 08:13:05;;;;;;;112.53;62.53;;;;;;;3.87;95.52;98505.75;5027069;28;20032;-76
2021/01/30 08:15:35;;;;;;;101.78;61.20;;;;;;;3.96;95.58;98518.09;5033907;28;20091;-77
2021/01/30 08:18:23;;;;;;;112.47;64.28;;;;;;;3.91;95.55;98510.69;5030532;28;20072;-77
2021/01/30 08:21:12;;;;;;;101.70;59.30;;;;;;;4.02;94.87;98512.94;5047784;28;20116;-85
2021/01/30 08:24:22;;;;;;;113.85;63.63;;;;;;;4.07;94.63;98513.63;5047378;28;20060;-79
2021/01/30 08:26:56;;;;;;;112.22;67.70;;;;;;;4.10;95.40;98509.31;5043257;28;20063;-78
2021/01/30 08:29:36;;;;;;;109.55;64.13;;;;;;;4.10;95.86;98511.03;5050632;28;20433;-77
2021/01/30 08:32:21;;;;;;;104.90;62.90;;;;;;;4.16;94.54;98519.22;5049285;28;20040;-76
2021/01/30 08:34:48;;;;;;;145.20;86.38;;;;;;;4.23;94.79;98519.91;5050050;28;20033;-78
2021/01/30 08:37:16;;;;;;;136.52;84.72;;;;;;;4.28;94.38;98515.56;5066357;28;20044;-80
2021/01/30 08:40:09;;;;;;;123.13;78.45;;;;;;;4.37;94.65;98518.69;5048821;28;20044;-79
2021/01/30 08:42:38;;;;;;;150.55;98.07;;;;;;;4.44;95.20;98526.88;5048197;28;20115;-79
2021/01/30 08:45:11;;;;;;;154.15;97.28;;;;;;;4.56;94.92;98506.41;5066273;28;20064;-79
2021/01/30 08:48:14;;;;;;;165.95;105.95;;;;;;;4.65;93.32;98528.81;5066188;28;20732;-81
2021/01/30 08:50:45;;;;;;;244.70;157.93;;;;;;;4.73;94.14;98524.41;5049135;28;20475;-78
2021/01/30 08:53:30;;;;;;;270.85;183.63;;;;;;;4.85;93.97;98526.53;5048299;28;20033;-78
2021/01/30 08:56:00;;;;;;;322.23;228.55;;;;;;;4.82;92.45;98523.28;5048937;28;20029;-78
2021/01/30 08:58:37;;;;;;;325.92;235.65;;;;;;;4.87;94.31;98532.34;5049631;28;20717;-80
2021/01/30 09:01:20;;;;;;;288.20;202.00;;;;;;;5.14;93.14;98525.69;5048134;28;20476;-79
2021/01/30 09:03:51;;;;;;;275.38;170.68;;;;;;;4.96;92.16;98509.44;5048704;28;20029;-79
2021/01/30 09:06:41;;;;;;;221.45;140.93;;;;;;;5.16;93.78;98537.38;5049148;28;20052;-81
2021/01/30 09:09:19;;;;;;;134.07;81.43;;;;;;;5.30;92.75;98524.38;5049878;28;20029;-82
2021/01/30 09:11:55;;;;;;;120.50;72.20;;;;;;;5.47;92.89;98524.66;5049086;28;20492;-80
2021/01/30 09:14:22;;;;;;;80.07;53.10;;;;;;;5.56;94.04;98528.59;5050079;28;20547;-79
2021/01/30 09:17:16;;;;;;;58.38;38.65;;;;;;;5.56;92.94;98531.97;5051139;28;20017;-81
2021/01/30 09:19:45;;;;;;;55.53;36.55;;;;;;;5.67;93.06;98532.44;5049784;28;20048;-79
2021/01/30 09:22:49;;;;;;;75.82;43.53;;;;;;;5.73;94.53;98518.81;5029246;28;20037;-81
2021/01/30 09:25:25;;;;;;;58.92;38.00;;;;;;;5.83;93.18;98517.63;5005434;28;20045;-79
2021/01/30 09:28:13;;;;;;;68.88;43.28;;;;;;;5.98;92.89;98517.97;5042900;28;20029;-80
2021/01/30 09:30:42;;;;;;;62.75;39.65;;;;;;;6.06;92.88;98523.59;5028902;28;20053;-80
2021/01/30 09:33:25;;;;;;;53.25;35.72;;;;;;;6.20;90.49;98508.00;5027615;28;20021;-81
2021/01/30 09:35:59;;;;;;;67.95;45.95;;;;;;;6.37;91.65;98525.91;5027070;28;20030;-78
2021/01/30 09:38:35;;;;;;;87.45;49.55;;;;;;;6.56;89.92;98523.56;5044998;28;20079;-82
2021/01/30 09:41:14;;;;;;;58.15;36.03;;;;;;;6.77;86.99;98516.03;5022472;28;20084;-79
2021/01/30 09:43:42;;;;;;;48.67;28.00;;;;;;;6.86;84.96;98514.88;5026194;28;20617;-82
2021/01/30 09:46:14;;;;;;;49.65;26.65;;;;;;;6.91;85.69;98515.56;5009292;28;20040;-81
2021/01/30 09:48:40;;;;;;;;;;;;;;;7.16;81.83;98512.91;5026416;28;20032;-80
2021/01/30 09:51:09;;;;;;;31.65;16.58;;;;;;;7.20;82.50;98504.34;5023919;28;19923;-80
2021/01/30 09:53:51;;;;;;;37.22;22.95;;;;;;;7.32;80.75;98498.81;5023846;28;20399;-79
2021/01/30 09:56:20;;;;;;;22.50;14.13;;;;;;;7.21;80.15;98479.00;5023595;28;20120;-85
2021/01/30 09:58:53;;;;;;;9.65;5.78;;;;;;;7.00;79.56;98442.78;5023528;28;20044;-81
2021/01/30 10:01:31;;;;;;;10.13;5.30;;;;;;;7.25;80.90;98487.31;5044843;28;20033;-79
2021/01/30 10:04:00;;;;;;;16.05;8.98;;;;;;;7.17;80.18;98484.25;5028668;28;20040;-78
2021/01/30 10:06:32;;;;;;;9.75;6.25;;;;;;;7.34;79.59;98497.03;5028030;28;20040;-79
2021/01/30 10:09:14;;;;;;;9.85;5.95;;;;;;;7.26;80.08;98476.31;5045715;28;20024;-86
2021/01/30 10:11:43;;;;;;;12.13;7.60;;;;;;;7.40;80.76;98501.88;5027633;28;20394;-82
2021/01/30 10:14:19;;;;;;;10.23;7.53;;;;;;;7.32;78.92;98484.47;5030545;28;20071;-78
2021/01/30 10:16:58;;;;;;;8.98;5.60;;;;;;;7.43;78.97;98500.03;5030948;28;20048;-79
2021/01/30 10:19:30;;;;;;;10.07;7.15;;;;;;;7.37;78.79;98487.63;5029632;28;20048;-77
2021/01/30 10:21:56;;;;;;;10.05;6.43;;;;;;;7.34;79.56;98494.53;5030003;28;20471;-77
2021/01/30 10:24:31;;;;;;;12.07;8.52;;;;;;;7.52;79.28;98511.50;5029236;28;20040;-79
2021/01/30 10:27:30;;;;;;;11.43;7.90;;;;;;;7.43;80.44;98512.66;5029907;28;20036;-78
2021/01/30 10:29:56;;;;;;;10.15;7.43;;;;;;;7.48;80.29;98520.91;4986389;28;20627;-80
2021/01/30 10:32:39;;;;;;;14.32;10.02;;;;;;;7.45;80.29;98518.50;5030575;28;20060;-81
2021/01/30 10:35:12;;;;;;;19.83;13.77;;;;;;;7.50;79.19;98523.38;5030413;28;20068;-82
2021/01/30 10:38:15;;;;;;;12.27;7.95;;;;;;;7.54;77.18;98529.97;5029297;28;20043;-80
2021/01/30 10:40:58;;;;;;;7.65;4.85;;;;;;;7.52;78.53;98524.97;5018679;28;20057;-78
2021/01/30 10:43:32;;;;;;;7.10;3.90;;;;;;;7.43;76.92;98501.72;5012443;28;20056;-81
2021/01/30 10:46:14;;;;;;;6.40;4.30;;;;;;;7.26;77.17;98471.25;5010066;28;20474;-82
2021/01/30 10:48:42;;;;;;;5.97;4.03;;;;;;;7.52;77.53;98526.66;5010347;28;20052;-79
2021/01/30 10:51:18;;;;;;;6.88;4.10;;;;;;;7.59;75.73;98511.19;5011068;28;20025;-85
2021/01/30 10:53:43;;;;;;;7.97;5.00;;;;;;;7.54;75.87;98510.56;5014575;28;20491;-83
2021/01/30 10:56:28;;;;;;;5.93;3.60;;;;;;;7.66;75.83;98529.47;5019554;28;20029;-82
2021/01/30 10:58:57;;;;;;;7.65;5.00;;;;;;;7.66;75.63;98529.47;5000671;28;20038;-83
2021/01/30 11:01:33;;;;;;;8.75;4.65;;;;;;;7.66;75.36;98517.66;4998672;28;20533;-84
2021/01/30 11:04:02;;;;;;;6.82;4.13;;;;;;;7.55;76.60;98514.72;5013466;28;20026;-83
2021/01/30 11:06:39;;;;;;;12.68;7.65;;;;;;;7.35;77.18;98486.88;4992110;28;20030;-82
2021/01/30 11:09:15;;;;;;;9.38;6.18;;;;;;;7.52;77.38;98526.66;4991919;28;20014;-80
2021/01/30 11:11:44;;;;;;;17.20;10.70;;;;;;;7.56;77.42;98528.19;4991591;28;20038;-79
2021/01/30 11:14:21;;;;;;;22.00;12.52;;;;;;;7.61;76.16;98537.22;4991472;28;20034;-86
2021/01/30 11:16:56;;;;;;;21.27;11.70;;;;;;;7.60;75.93;98532.25;5009121;28;20104;-80
2021/01/30 11:19:25;;;;;;;15.13;8.50;;;;;;;7.61;76.91;98524.59;5030318;28;20036;-79
2021/01/30 11:22:21;;;;;;;12.32;7.18;;;;;;;7.54;75.92;98510.56;5015608;28;20498;-81
2021/01/30 11:24:51;;;;;;;26.67;12.20;;;;;;;7.60;76.64;98520.44;5010865;28;20494;-79
2021/01/30 11:27:36;;;;;;;14.52;7.28;;;;;;;7.62;75.43;98527.94;5010795;28;20088;-81
2021/01/30 11:30:23;;;;;;;8.82;4.55;;;;;;;7.60;74.87;98515.38;5011030;28;20041;-80
2021/01/30 11:33:08;;;;;;;18.83;8.35;;;;;;;7.61;75.84;98533.88;5011812;28;20517;-78
2021/01/30 11:35:55;;;;;;;16.88;8.15;;;;;;;7.58;76.98;98542.44;5010479;28;20029;-78
2021/01/30 11:38:26;;;;;;;12.02;5.97;;;;;;;7.64;75.09;98546.41;5011392;28;20024;-83
2021/01/30 11:40:56;;;;;;;13.93;7.13;;;;;;;7.59;75.53;98538.16;5022133;28;20070;-82
2021/01/30 11:43:24;;;;;;;17.67;9.82;;;;;;;7.70;75.60;98552.06;5027226;28;20037;-78
2021/01/30 11:45:52;;;;;;;13.85;8.18;;;;;;;7.88;78.74;98561.41;5048324;28;20787;-81
2021/01/30 11:48:20;;;;;;;9.32;5.60;;;;;;;7.72;75.31;98562.94;5045811;28;20060;-82
2021/01/30 11:50:46;;;;;;;6.30;3.90;;;;;;;7.61;74.44;98547.34;5047412;28;20025;-77
2021/01/30 11:53:16;;;;;;;9.05;5.93;;;;;;;7.74;75.78;98563.69;5046598;28;20033;-80
2021/01/30 11:55:42;;;;;;;9.13;5.40;;;;;;;7.70;75.67;98563.88;5053163;28;20060;-80
2021/01/30 11:58:10;;;;;;;9.88;4.78;;;;;;;7.70;74.87;98547.00;5057611;28;20041;-77
2021/01/30 12:00:37;;;;;;;12.93;6.82;;;;;;;7.73;76.21;98546.88;5046786;28;20087;-76
2021/01/30 12:03:32;;;;;;;8.70;4.75;;;;;;;7.74;76.72;98567.94;5049803;28;20032;-77
2021/01/30 12:06:28;;;;;;;11.23;6.97;;;;;;;7.78;75.26;98574.53;5059778;28;20521;-79
2021/01/30 12:08:53;;;;;;;12.80;9.77;;;;;;;7.71;76.46;98565.50;5051400;28;20028;-78
2021/01/30 12:11:20;;;;;;;19.17;15.20;;;;;;;7.79;76.64;98583.72;5051525;28;20383;-77
2021/01/30 12:14:02;;;;;;;8.98;6.47;;;;;;;7.71;76.57;98575.63;5051975;28;20405;-78
2021/01/30 12:16:37;;;;;;;;;;;;;;;7.82;76.55;98586.16;5053379;28;20025;-79
2021/01/30 12:19:05;;;;;;;12.13;7.63;;;;;;;7.68;76.42;98568.16;5051191;28;19913;-78
2021/01/30 12:21:42;;;;;;;12.60;7.95;;;;;;;7.81;76.54;98579.44;5052606;28;20032;-78
2021/01/30 12:24:09;;;;;;;8.75;5.78;;;;;;;7.77;75.86;98581.28;5052977;28;20069;-78
2021/01/30 12:27:10;;;;;;;9.38;6.03;;;;;;;7.88;75.47;98585.91;5051727;28;20494;-78
2021/01/30 12:29:48;;;;;;;7.50;5.20;;;;;;;7.79;74.97;98566.03;5052762;28;20037;-78
2021/01/30 12:32:18;;;;;;;10.07;7.85;;;;;;;7.94;75.23;98585.69;5052822;28;20025;-78
2021/01/30 12:35:17;;;;;;;9.38;6.30;;;;;;;8.07;74.20;98588.53;5051085;28;20489;-78
2021/01/30 12:38:03;;;;;;;5.95;4.65;;;;;;;8.10;75.08;98590.94;5051646;28;20035;-78
2021/01/30 12:43:50;;;;;;;4.22;3.17;;;;;;;8.08;74.65;98593.50;5052491;28;20040;-77
2021/01/30 12:50:19;;;;;;;8.47;5.70;;;;;;;8.21;74.12;98598.91;5052358;28;20136;-77